createdAt,value
2018-03-14T00:01:23.766Z,10.10
2018-03-14T00:03:51.465Z,10.10
2018-03-14T00:06:18.384Z,10.20
2018-03-14T00:08:45.448Z,10.20
2018-03-14T00:11:12.903Z,10.30
2018-03-14T00:13:42.904Z,10.40
2018-03-14T00:16:10.638Z,10.50
2018-03-14T00:18:37.753Z,10.40
2018-03-14T00:21:04.299Z,10.50
2018-03-14T00:23:33.039Z,10.50
2018-03-14T00:26:01.023Z,10.60
2018-03-14T00:30:56.000Z,10.50
2018-03-14T00:33:23.547Z,10.60
2018-03-14T00:35:50.862Z,10.60
2018-03-14T00:38:18.920Z,10.60
2018-03-14T00:40:45.836Z,10.50
2018-03-14T00:43:13.288Z,10.40
2018-03-14T00:45:40.695Z,10.40
2018-03-14T00:48:07.516Z,10.50
2018-03-14T00:53:02.763Z,10.50
2018-03-14T00:55:35.452Z,10.60
2018-03-14T00:58:01.980Z,10.70
2018-03-14T01:00:30.675Z,10.70
2018-03-14T01:02:57.252Z,10.80
2018-03-14T01:05:24.332Z,10.80
2018-03-14T01:07:52.487Z,10.70
2018-03-14T01:10:20.225Z,10.70
2018-03-14T01:12:48.300Z,10.70
2018-03-14T01:15:14.773Z,10.70
2018-03-14T01:17:41.313Z,10.60
2018-03-14T01:20:07.949Z,10.60
2018-03-14T01:22:35.927Z,10.60
2018-03-14T01:25:02.485Z,10.60
2018-03-14T01:27:29.299Z,10.50
2018-03-14T01:29:55.911Z,10.50
2018-03-14T01:32:24.484Z,10.60
2018-03-14T01:34:51.097Z,10.60
2018-03-14T01:37:17.604Z,10.50
2018-03-14T01:39:44.123Z,10.50
2018-03-14T01:42:11.040Z,10.60
2018-03-14T01:44:38.784Z,10.60
2018-03-14T01:47:07.649Z,10.60
2018-03-14T01:49:34.868Z,10.60
2018-03-14T01:52:01.514Z,10.60
2018-03-14T01:54:28.575Z,10.60
2018-03-14T01:56:55.083Z,10.60
2018-03-14T01:59:21.992Z,10.60
2018-03-14T02:01:49.687Z,10.60
2018-03-14T02:04:16.309Z,10.60
2018-03-14T02:06:43.998Z,10.60
2018-03-14T02:09:10.889Z,10.60
2018-03-14T02:11:37.382Z,10.70
2018-03-14T02:14:03.966Z,10.60
2018-03-14T02:16:32.964Z,10.70
2018-03-14T02:19:00.725Z,10.60
2018-03-14T02:21:28.503Z,10.60
2018-03-14T02:23:56.257Z,10.60
2018-03-14T02:26:23.410Z,10.50
2018-03-14T02:28:49.945Z,10.50
2018-03-14T02:31:17.657Z,10.60
2018-03-14T02:33:44.194Z,10.60
2018-03-14T02:36:11.068Z,10.60
2018-03-14T02:38:38.850Z,10.70
2018-03-14T02:41:05.320Z,10.70
2018-03-14T02:43:33.396Z,10.50
2018-03-14T02:46:00.245Z,10.20
2018-03-14T02:48:26.774Z,10.20
2018-03-14T02:53:24.148Z,10.30
2018-03-14T02:55:51.593Z,10.30
2018-03-14T02:58:18.736Z,10.40
2018-03-14T03:00:46.511Z,10.40
2018-03-14T03:03:13.412Z,10.30
2018-03-14T03:05:39.952Z,10.30
2018-03-14T03:08:07.696Z,10.30
2018-03-14T03:10:35.724Z,10.30
2018-03-14T03:13:02.644Z,10.30
2018-03-14T03:15:29.703Z,10.40
2018-03-14T03:17:58.719Z,10.30
2018-03-14T03:20:26.468Z,10.40
2018-03-14T03:22:59.772Z,10.40
2018-03-14T03:25:26.600Z,10.50
2018-03-14T03:27:53.440Z,10.40
2018-03-14T03:30:20.751Z,10.40
2018-03-14T03:32:47.760Z,10.50
2018-03-14T03:35:14.296Z,10.40
2018-03-14T03:37:41.147Z,10.50
2018-03-14T03:40:08.023Z,10.50
2018-03-14T03:42:34.810Z,10.50
2018-03-14T03:45:01.686Z,10.60
2018-03-14T03:47:28.207Z,10.50
2018-03-14T03:49:55.049Z,10.50
2018-03-14T03:52:21.919Z,10.50
2018-03-14T03:54:52.712Z,10.50
2018-03-14T03:57:19.684Z,10.60
2018-03-14T03:59:46.690Z,10.50
2018-03-14T04:02:13.243Z,10.60
2018-03-14T04:04:40.082Z,10.60
2018-03-14T04:07:06.927Z,10.60
2018-03-14T04:09:33.542Z,10.60
2018-03-14T04:12:00.059Z,10.60
2018-03-14T04:14:26.916Z,10.60
2018-03-14T04:16:53.972Z,10.70
2018-03-14T04:19:22.488Z,10.70
2018-03-14T04:21:48.884Z,10.60
2018-03-14T04:24:16.354Z,10.60
2018-03-14T04:26:43.256Z,10.60
2018-03-14T04:29:14.960Z,10.60
2018-03-14T04:31:41.869Z,10.60
2018-03-14T04:34:08.400Z,10.70
2018-03-14T04:36:36.355Z,10.70
2018-03-14T04:39:02.845Z,10.70
2018-03-14T04:41:29.375Z,10.70
2018-03-14T04:43:56.156Z,10.70
2018-03-14T04:46:23.021Z,10.70
2018-03-14T04:48:50.312Z,10.70
2018-03-14T04:51:16.701Z,10.70
2018-03-14T04:53:43.462Z,10.60
2018-03-14T04:56:10.309Z,10.60
2018-03-14T04:58:37.130Z,10.60
2018-03-14T05:01:03.925Z,10.50
2018-03-14T05:03:30.735Z,10.50
2018-03-14T05:05:57.664Z,10.50
2018-03-14T05:08:24.432Z,10.40
2018-03-14T05:10:50.912Z,10.40
2018-03-14T05:13:17.320Z,10.40
2018-03-14T05:15:43.731Z,10.40
2018-03-14T05:18:10.580Z,10.40
2018-03-14T05:20:37.152Z,10.50
2018-03-14T05:23:04.288Z,10.60
2018-03-14T05:25:30.690Z,10.70
2018-03-14T05:27:57.816Z,10.70
2018-03-14T05:30:24.584Z,10.80
2018-03-14T05:32:51.032Z,10.80
2018-03-14T05:35:17.489Z,10.80
2018-03-14T05:37:44.719Z,10.80
2018-03-14T05:40:11.172Z,10.90
2018-03-14T05:42:37.624Z,10.90
2018-03-14T05:45:04.836Z,10.90
2018-03-14T05:47:31.629Z,11.00
2018-03-14T05:49:58.399Z,11.00
2018-03-14T05:52:25.208Z,11.10
2018-03-14T05:54:52.925Z,11.10
2018-03-14T05:57:20.055Z,11.10
2018-03-14T05:59:46.890Z,11.20
2018-03-14T06:02:13.314Z,11.20
2018-03-14T06:04:39.710Z,11.30
2018-03-14T06:07:06.552Z,11.30
2018-03-14T06:09:33.078Z,11.40
2018-03-14T06:11:59.466Z,11.60
2018-03-14T06:14:26.792Z,11.60
2018-03-14T06:16:53.284Z,11.60
2018-03-14T06:19:19.836Z,11.60
2018-03-14T06:21:47.444Z,11.60
2018-03-14T06:24:14.313Z,11.70
2018-03-14T06:26:41.174Z,11.70
2018-03-14T06:29:08.016Z,11.80
2018-03-14T06:31:35.532Z,11.80
2018-03-14T06:34:02.396Z,11.80
2018-03-14T06:36:30.589Z,11.90
2018-03-14T06:38:57.056Z,11.90
2018-03-14T06:41:24.569Z,11.90
2018-03-14T06:43:51.900Z,11.90
2018-03-14T06:46:18.506Z,11.80
2018-03-14T06:48:44.987Z,11.90
2018-03-14T06:51:11.823Z,11.90
2018-03-14T06:53:38.613Z,11.90
2018-03-14T06:56:05.508Z,11.80
2018-03-14T06:58:44.244Z,11.80
2018-03-14T07:01:22.636Z,11.50
2018-03-14T07:04:01.273Z,11.50
2018-03-14T07:06:28.044Z,11.40
2018-03-14T07:08:55.190Z,11.30
2018-03-14T07:11:22.404Z,11.30
2018-03-14T07:13:49.543Z,11.30
2018-03-14T07:16:16.788Z,11.40
2018-03-14T07:18:43.179Z,11.50
2018-03-14T07:21:10.013Z,11.60
2018-03-14T07:23:36.477Z,11.60
2018-03-14T07:26:02.972Z,11.60
2018-03-14T07:28:30.486Z,11.60
2018-03-14T07:30:56.941Z,11.70
2018-03-14T07:33:23.358Z,11.80
2018-03-14T07:35:49.752Z,11.80
2018-03-14T07:38:16.752Z,11.90
2018-03-14T07:40:43.525Z,12.10
2018-03-14T07:43:10.547Z,12.30
2018-03-14T07:45:36.952Z,13.10
2018-03-14T07:48:04.148Z,14.00
2018-03-14T07:50:30.559Z,14.60
2018-03-14T07:52:56.993Z,14.80
2018-03-14T07:55:23.885Z,15.00
2018-03-14T07:57:50.341Z,15.20
2018-03-14T08:00:17.209Z,15.50
2018-03-14T08:02:43.579Z,15.50
2018-03-14T08:05:11.509Z,15.50
2018-03-14T08:07:38.089Z,15.50
2018-03-14T08:10:04.561Z,15.40
2018-03-14T08:12:31.484Z,15.30
2018-03-14T08:14:57.875Z,15.20
2018-03-14T08:17:24.643Z,15.00
2018-03-14T08:19:51.405Z,15.00
2018-03-14T08:22:17.903Z,14.90
2018-03-14T08:24:44.723Z,14.80
2018-03-14T08:27:11.216Z,14.70
2018-03-14T08:29:38.394Z,14.60
2018-03-14T08:32:06.760Z,14.60
2018-03-14T08:34:34.176Z,14.50
2018-03-14T08:37:00.575Z,14.30
2018-03-14T08:39:27.048Z,14.10
2018-03-14T08:41:53.818Z,13.80
2018-03-14T08:44:20.967Z,13.70
2018-03-14T08:46:47.832Z,13.30
2018-03-14T08:49:14.594Z,13.20
2018-03-14T08:51:41.077Z,13.00
2018-03-14T08:54:08.931Z,12.90
2018-03-14T08:56:35.451Z,12.70
2018-03-14T08:59:02.632Z,12.60
2018-03-14T09:01:29.376Z,12.50
2018-03-14T09:03:56.397Z,12.40
2018-03-14T09:06:22.840Z,12.50
2018-03-14T09:08:50.059Z,12.60
2018-03-14T09:11:16.555Z,12.60
2018-03-14T09:13:42.963Z,12.60
2018-03-14T09:16:09.353Z,12.70
2018-03-14T09:18:35.869Z,12.90
2018-03-14T09:21:02.276Z,13.10
2018-03-14T09:23:28.651Z,13.30
2018-03-14T09:25:55.427Z,13.30
2018-03-14T09:28:22.358Z,13.30
2018-03-14T09:30:48.859Z,13.40
2018-03-14T09:33:17.348Z,13.50
2018-03-14T09:35:45.041Z,13.90
2018-03-14T09:38:11.428Z,14.00
2018-03-14T09:40:38.187Z,14.20
2018-03-14T09:43:04.656Z,14.20
2018-03-14T09:45:31.128Z,14.20
2018-03-14T09:47:58.557Z,14.20
2018-03-14T09:50:25.326Z,14.20
2018-03-14T09:52:52.669Z,14.20
2018-03-14T09:55:19.119Z,14.00
2018-03-14T09:57:45.575Z,13.90
2018-03-14T10:00:12.018Z,13.70
2018-03-14T10:02:38.772Z,13.70
2018-03-14T10:05:05.548Z,13.80
2018-03-14T10:07:32.098Z,13.70
2018-03-14T10:09:58.514Z,13.90
2018-03-14T10:12:25.364Z,14.10
2018-03-14T10:14:51.869Z,14.50
2018-03-14T10:17:18.323Z,14.90
2018-03-14T10:19:44.715Z,15.90
2018-03-14T10:22:13.546Z,17.10
2018-03-14T10:24:39.973Z,17.70
2018-03-14T10:27:06.822Z,18.20
2018-03-14T10:29:33.664Z,18.50
2018-03-14T10:32:00.169Z,18.50
2018-03-14T10:34:27.357Z,18.20
2018-03-14T10:36:54.112Z,17.70
2018-03-14T10:39:20.880Z,17.10
2018-03-14T10:41:48.085Z,16.80
2018-03-14T10:44:14.480Z,16.70
2018-03-14T10:46:40.930Z,16.40
2018-03-14T10:49:07.700Z,16.30
2018-03-14T10:51:34.094Z,16.20
2018-03-14T10:54:01.332Z,16.10
2018-03-14T10:56:28.327Z,16.10
2018-03-14T10:58:55.449Z,16.30
2018-03-14T11:01:24.513Z,16.30
2018-03-14T11:03:50.907Z,16.20
2018-03-14T11:06:17.366Z,16.10
2018-03-14T11:08:43.765Z,16.00
2018-03-14T11:11:10.523Z,16.00
2018-03-14T11:13:37.503Z,16.20
2018-03-14T11:16:04.034Z,16.40
2018-03-14T11:18:30.481Z,16.60
2018-03-14T11:20:57.668Z,16.60
2018-03-14T11:23:24.073Z,16.30
2018-03-14T11:25:50.780Z,16.20
2018-03-14T11:28:18.366Z,16.00
2018-03-14T11:30:45.868Z,16.10
2018-03-14T11:33:12.683Z,16.20
2018-03-14T11:35:39.873Z,16.50
2018-03-14T11:38:06.807Z,16.70
2018-03-14T11:40:33.300Z,16.90
2018-03-14T11:42:59.835Z,17.00
2018-03-14T11:45:26.440Z,17.20
2018-03-14T11:47:52.831Z,17.40
2018-03-14T11:50:19.680Z,17.60
2018-03-14T11:52:46.601Z,17.90
2018-03-14T11:55:13.084Z,18.10
2018-03-14T11:57:42.176Z,18.30
2018-03-14T12:00:09.077Z,18.50
2018-03-14T12:02:35.913Z,18.70
2018-03-14T12:05:02.435Z,18.90
2018-03-14T12:07:28.860Z,18.80
2018-03-14T12:09:55.260Z,18.80
2018-03-14T12:12:21.683Z,18.70
2018-03-14T12:14:48.182Z,18.70
2018-03-14T12:17:14.952Z,18.80
2018-03-14T12:19:41.744Z,18.80
2018-03-14T12:22:14.572Z,18.90
2018-03-14T12:24:42.004Z,19.00
2018-03-14T12:27:08.857Z,19.00
2018-03-14T12:29:35.269Z,18.90
2018-03-14T12:32:01.682Z,18.80
2018-03-14T12:34:29.097Z,18.90
2018-03-14T12:36:57.501Z,18.90
2018-03-14T12:39:24.004Z,18.70
2018-03-14T12:41:50.784Z,18.60
2018-03-14T12:44:17.219Z,18.60
2018-03-14T12:46:43.705Z,18.50
2018-03-14T12:49:10.840Z,18.50
2018-03-14T12:51:37.304Z,18.50
2018-03-14T12:54:03.790Z,18.50
2018-03-14T12:56:30.371Z,18.70
2018-03-14T12:58:56.849Z,18.90
2018-03-14T13:01:23.424Z,18.90
2018-03-14T13:03:49.872Z,18.90
2018-03-14T13:06:16.906Z,18.50
2018-03-14T13:08:43.728Z,18.10
2018-03-14T13:11:10.190Z,17.70
2018-03-14T13:13:36.614Z,17.40
2018-03-14T13:16:03.830Z,17.10
2018-03-14T13:18:30.622Z,16.90
2018-03-14T13:20:57.393Z,16.90
2018-03-14T13:23:23.883Z,16.70
2018-03-14T13:25:50.912Z,16.50
2018-03-14T13:28:17.363Z,16.50
2018-03-14T13:30:43.992Z,16.40
2018-03-14T13:33:10.441Z,16.20
2018-03-14T13:35:37.584Z,16.20
2018-03-14T13:38:04.379Z,16.10
2018-03-14T13:40:30.768Z,15.90
2018-03-14T13:42:57.229Z,16.00
2018-03-14T13:45:24.372Z,15.90
2018-03-14T13:47:50.763Z,15.80
2018-03-14T13:50:18.030Z,15.80
2018-03-14T13:52:45.025Z,15.70
2018-03-14T13:55:11.474Z,15.70
2018-03-14T13:57:38.275Z,15.50
2018-03-14T14:00:05.227Z,15.40
2018-03-14T14:02:31.633Z,15.30
2018-03-14T14:04:58.050Z,15.40
2018-03-14T14:07:24.888Z,15.50
2018-03-14T14:09:51.644Z,15.50
2018-03-14T14:12:18.487Z,15.50
2018-03-14T14:14:45.266Z,15.50
2018-03-14T14:17:12.279Z,15.30
2018-03-14T14:19:39.480Z,15.20
2018-03-14T14:22:06.270Z,15.20
2018-03-14T14:24:33.040Z,15.30
2018-03-14T14:26:59.801Z,15.30
2018-03-14T14:29:26.737Z,15.40
2018-03-14T14:31:53.279Z,15.50
2018-03-14T14:34:19.740Z,15.60
2018-03-14T14:36:46.545Z,15.80
2018-03-14T14:39:13.050Z,15.80
2018-03-14T14:41:40.056Z,16.00
2018-03-14T14:44:06.537Z,16.00
2018-03-14T14:46:33.045Z,16.10
2018-03-14T14:49:00.028Z,16.00
2018-03-14T14:51:27.326Z,15.90
2018-03-14T14:53:53.920Z,15.80
2018-03-14T14:56:20.710Z,15.70
2018-03-14T14:58:47.648Z,15.50
2018-03-14T15:01:15.063Z,15.50
2018-03-14T15:03:41.890Z,15.40
2018-03-14T15:06:08.349Z,15.40
2018-03-14T15:08:35.540Z,15.40
2018-03-14T15:11:01.944Z,15.30
2018-03-14T15:13:28.726Z,15.40
2018-03-14T15:15:55.892Z,15.40
2018-03-14T15:18:22.429Z,15.40
2018-03-14T15:20:48.894Z,15.40
2018-03-14T15:23:15.377Z,15.50
2018-03-14T15:25:41.813Z,15.40
2018-03-14T15:28:08.715Z,15.20
2018-03-14T15:30:35.338Z,15.20
2018-03-14T15:33:01.732Z,15.20
2018-03-14T15:35:28.496Z,15.10
2018-03-14T15:37:56.285Z,15.00
2018-03-14T15:40:23.413Z,15.00
2018-03-14T15:42:51.036Z,15.10
2018-03-14T15:45:17.621Z,15.20
2018-03-14T15:47:44.488Z,15.30
2018-03-14T15:50:10.953Z,15.30
2018-03-14T15:52:37.778Z,15.10
2018-03-14T15:55:04.392Z,15.10
2018-03-14T15:57:31.624Z,15.00
2018-03-14T15:59:58.968Z,14.90
2018-03-14T16:02:26.110Z,14.80
2018-03-14T16:04:52.515Z,14.80
2018-03-14T16:07:19.512Z,14.80
2018-03-14T16:09:45.931Z,14.70
2018-03-14T16:12:12.692Z,14.70
2018-03-14T16:14:39.526Z,14.70
2018-03-14T16:17:07.178Z,14.60
2018-03-14T16:19:33.734Z,14.60
2018-03-14T16:22:00.195Z,14.50
2018-03-14T16:24:27.003Z,14.40
2018-03-14T16:26:53.948Z,14.50
2018-03-14T16:29:21.048Z,14.50
2018-03-14T16:31:47.507Z,14.40
2018-03-14T16:34:14.724Z,14.40
2018-03-14T16:36:41.295Z,14.40
2018-03-14T16:39:08.519Z,14.30
2018-03-14T16:41:35.282Z,14.20
2018-03-14T16:44:02.126Z,14.10
2018-03-14T16:46:28.965Z,14.10
2018-03-14T16:48:56.177Z,14.10
2018-03-14T16:51:22.582Z,14.00
2018-03-14T16:53:49.356Z,14.00
2018-03-14T16:56:16.139Z,14.00
2018-03-14T16:58:43.279Z,14.00
2018-03-14T17:01:11.143Z,14.00
2018-03-14T17:03:38.653Z,14.00
2018-03-14T17:06:06.282Z,13.90
2018-03-14T17:08:33.049Z,13.90
2018-03-14T17:10:59.877Z,14.00
2018-03-14T17:13:26.976Z,14.00
2018-03-14T17:15:54.851Z,13.90
2018-03-14T17:18:21.693Z,13.90
2018-03-14T17:20:49.468Z,14.00
2018-03-14T17:23:15.890Z,14.00
2018-03-14T17:25:43.090Z,14.00
2018-03-14T17:28:10.463Z,14.00
2018-03-14T17:30:36.940Z,14.00
2018-03-14T17:33:03.448Z,14.00
2018-03-14T17:35:29.851Z,14.00
2018-03-14T17:37:56.324Z,14.00
2018-03-14T17:40:22.864Z,13.90
2018-03-14T17:42:49.375Z,13.90
2018-03-14T17:45:16.035Z,13.90
2018-03-14T17:47:43.259Z,13.90
2018-03-14T17:50:09.731Z,13.90
2018-03-14T17:52:36.180Z,13.80
2018-03-14T17:55:03.159Z,13.80
2018-03-14T17:57:29.570Z,13.80
2018-03-14T17:59:56.003Z,13.80
2018-03-14T18:02:22.438Z,13.80
2018-03-14T18:04:48.872Z,13.80
2018-03-14T18:07:15.746Z,13.70
2018-03-14T18:09:42.318Z,13.70
2018-03-14T18:12:09.757Z,13.70
2018-03-14T18:14:36.646Z,13.70
2018-03-14T18:17:03.470Z,13.70
2018-03-14T18:19:33.919Z,13.70
2018-03-14T18:22:00.455Z,13.70
2018-03-14T18:24:26.871Z,13.70
2018-03-14T18:26:53.703Z,13.70
2018-03-14T18:29:20.357Z,13.80
2018-03-14T18:31:46.839Z,13.80
2018-03-14T18:34:13.780Z,13.70
2018-03-14T18:36:40.916Z,13.60
2018-03-14T18:39:07.756Z,13.60
2018-03-14T18:41:34.304Z,13.50
2018-03-14T18:44:01.773Z,13.40
2018-03-14T18:46:28.235Z,13.20
2018-03-14T18:48:55.153Z,13.10
2018-03-14T18:51:21.599Z,13.00
2018-03-14T18:53:48.418Z,13.00
2018-03-14T18:56:15.294Z,12.80
2018-03-14T18:58:42.884Z,12.70
2018-03-14T19:01:09.736Z,12.60
2018-03-14T19:03:36.512Z,12.50
2018-03-14T19:06:02.976Z,12.50
2018-03-14T19:08:29.787Z,12.40
2018-03-14T19:10:56.663Z,12.40
2018-03-14T19:13:23.610Z,12.20
2018-03-14T19:15:50.961Z,12.20
2018-03-14T19:18:17.431Z,12.10
2018-03-14T19:20:44.215Z,12.10
2018-03-14T19:23:10.919Z,12.00
2018-03-14T19:25:38.632Z,12.00
2018-03-14T19:28:05.482Z,12.00
2018-03-14T19:30:31.900Z,12.00
2018-03-14T19:32:58.380Z,12.00
2018-03-14T19:35:25.370Z,12.00
2018-03-14T19:37:52.308Z,11.90
2018-03-14T19:40:20.057Z,11.80
2018-03-14T19:42:46.549Z,11.80
2018-03-14T19:45:14.116Z,11.70
2018-03-14T19:47:41.286Z,11.50
2018-03-14T19:50:07.996Z,11.50
2018-03-14T19:52:34.681Z,11.40
2018-03-14T19:55:02.009Z,11.40
2018-03-14T19:57:28.480Z,11.40
2018-03-14T19:59:54.977Z,11.30
2018-03-14T20:02:22.146Z,11.30
2018-03-14T20:04:48.613Z,11.40
2018-03-14T20:07:15.626Z,11.40
2018-03-14T20:12:11.082Z,11.40
2018-03-14T20:14:37.614Z,11.40
2018-03-14T20:17:04.023Z,11.40
2018-03-14T20:19:30.806Z,11.40
2018-03-14T20:21:58.513Z,11.30
2018-03-14T20:24:25.027Z,11.30
2018-03-14T20:29:20.011Z,11.30
2018-03-14T20:31:46.428Z,11.30
2018-03-14T20:34:16.361Z,11.20
2018-03-14T20:36:51.528Z,11.10
2018-03-14T20:39:18.852Z,11.10
2018-03-14T20:41:46.196Z,11.10
2018-03-14T20:46:41.398Z,11.20
2018-03-14T20:49:09.052Z,11.10
2018-03-14T20:51:35.480Z,11.10
2018-03-14T20:54:02.805Z,11.20
2018-03-14T20:56:29.303Z,11.20
2018-03-14T20:58:58.214Z,11.20
2018-03-14T21:01:24.639Z,11.10
2018-03-14T21:03:51.956Z,11.10
2018-03-14T21:11:15.100Z,11.20
2018-03-14T21:13:42.309Z,11.20
2018-03-14T21:16:09.068Z,11.10
2018-03-14T21:18:35.948Z,11.10
2018-03-14T21:21:02.735Z,11.10
2018-03-14T21:23:29.222Z,11.10
2018-03-14T21:25:55.657Z,11.00
2018-03-14T21:28:22.518Z,11.00
2018-03-14T21:30:50.715Z,11.00
2018-03-14T21:33:17.098Z,10.80
2018-03-14T21:35:44.947Z,10.80
2018-03-14T21:38:11.764Z,10.70
2018-03-14T21:40:38.240Z,10.70
2018-03-14T21:43:05.010Z,10.60
2018-03-14T21:45:32.163Z,10.60
2018-03-14T21:47:58.919Z,10.60
2018-03-14T21:50:25.403Z,10.50
2018-03-14T21:52:52.268Z,10.40
2018-03-14T21:55:32.224Z,10.30
2018-03-14T21:57:59.931Z,10.30
2018-03-14T22:00:27.120Z,10.30
2018-03-14T22:02:53.702Z,10.30
2018-03-14T22:05:21.376Z,10.20
2018-03-14T22:07:48.609Z,10.20
2018-03-14T22:10:15.490Z,10.10
2018-03-14T22:12:42.356Z,10.20
2018-03-14T22:15:10.256Z,10.20
2018-03-14T22:17:37.119Z,10.20
2018-03-14T22:20:03.997Z,10.20
2018-03-14T22:22:30.401Z,10.20
2018-03-14T22:24:58.053Z,10.20
2018-03-14T22:27:24.568Z,10.00
2018-03-14T22:29:51.187Z,10.10
2018-03-14T22:32:18.260Z,10.10
2018-03-14T22:34:46.159Z,10.00
2018-03-14T22:37:13.471Z,10.10
2018-03-14T22:39:40.366Z,10.10
2018-03-14T22:42:06.779Z,10.10
2018-03-14T22:44:33.963Z,10.10
2018-03-14T22:47:00.892Z,10.10
2018-03-14T22:49:27.686Z,10.10
2018-03-14T22:51:54.639Z,10.00
2018-03-14T22:54:21.440Z,10.00
2018-03-14T22:56:48.207Z,10.00
2018-03-14T22:59:14.616Z,10.00
2018-03-14T23:01:41.830Z,10.10
2018-03-14T23:04:08.617Z,10.00
2018-03-14T23:06:35.399Z,10.00
2018-03-14T23:09:03.087Z,10.10
2018-03-14T23:11:31.042Z,10.10
2018-03-14T23:13:57.504Z,10.10
2018-03-14T23:16:24.236Z,10.20
2018-03-14T23:18:50.698Z,10.20
2018-03-14T23:21:17.216Z,10.20
2018-03-14T23:23:43.765Z,10.30
2018-03-14T23:26:10.543Z,10.20
2018-03-14T23:28:37.148Z,10.20
2018-03-14T23:31:04.652Z,10.10
2018-03-14T23:33:31.107Z,10.10
2018-03-14T23:35:57.577Z,10.10
2018-03-14T23:38:24.518Z,10.20
2018-03-14T23:40:51.896Z,10.10
2018-03-14T23:43:18.693Z,10.10
2018-03-14T23:45:45.360Z,10.10
2018-03-14T23:48:11.897Z,10.20
2018-03-14T23:50:38.814Z,10.20
2018-03-14T23:53:08.037Z,10.10
2018-03-14T23:55:34.448Z,10.10
2018-03-14T23:58:01.249Z,10.00
